createdAt,value
2018-09-26T00:01:29.024Z,73.71
2018-09-26T00:04:02.031Z,72.84
2018-09-26T00:06:30.859Z,72.14
2018-09-26T00:08:59.420Z,71.79
2018-09-26T00:11:27.937Z,72.15
2018-09-26T00:13:56.482Z,70.91
2018-09-26T00:16:25.020Z,71.25
2018-09-26T00:18:53.897Z,71.39
2018-09-26T00:21:22.430Z,70.71
2018-09-26T00:23:50.990Z,69.27
2018-09-26T00:26:19.858Z,68.26
2018-09-26T00:28:48.398Z,68.81
2018-09-26T00:31:16.918Z,69.39
2018-09-26T00:33:45.491Z,67.62
2018-09-26T00:36:14.055Z,67.72
2018-09-26T00:38:42.552Z,67.79
2018-09-26T00:41:11.097Z,66.86
2018-09-26T00:43:39.667Z,67.61
2018-09-26T00:46:09.066Z,66.63
2018-09-26T00:48:37.682Z,67.21
2018-09-26T00:51:06.494Z,70.17
2018-09-26T00:53:35.095Z,69.35
2018-09-26T00:56:03.678Z,71.02
2018-09-26T00:58:32.338Z,71.90
2018-09-26T01:01:01.150Z,74.61
2018-09-26T01:03:29.718Z,76.28
2018-09-26T01:05:58.235Z,77.18
2018-09-26T01:08:26.773Z,78.15
2018-09-26T01:10:55.340Z,78.89
2018-09-26T01:13:23.866Z,77.97
2018-09-26T01:15:52.430Z,78.96
2018-09-26T01:18:20.967Z,78.49
2018-09-26T01:20:50.710Z,76.15
2018-09-26T01:23:19.239Z,73.72
2018-09-26T01:25:47.803Z,71.55
2018-09-26T01:28:16.334Z,72.02
2018-09-26T01:30:44.895Z,73.05
2018-09-26T01:33:13.433Z,71.57
2018-09-26T01:35:41.997Z,71.95
2018-09-26T01:38:10.554Z,72.41
2018-09-26T01:40:39.118Z,73.95
2018-09-26T01:43:07.655Z,74.58
2018-09-26T01:45:36.223Z,76.48
2018-09-26T01:48:04.921Z,78.68
2018-09-26T01:50:33.488Z,79.52
2018-09-26T01:53:02.005Z,79.38
2018-09-26T01:55:30.571Z,79.71
2018-09-26T01:57:59.098Z,79.02
2018-09-26T02:00:27.686Z,79.09
2018-09-26T02:02:56.206Z,79.70
2018-09-26T02:05:24.792Z,80.63
2018-09-26T02:07:53.328Z,81.18
2018-09-26T02:10:21.881Z,81.61
2018-09-26T02:12:50.402Z,81.46
2018-09-26T02:15:18.965Z,80.98
2018-09-26T02:17:47.558Z,81.92
2018-09-26T02:20:16.149Z,81.80
2018-09-26T02:22:44.699Z,81.84
2018-09-26T02:25:13.276Z,81.17
2018-09-26T02:27:41.818Z,79.45
2018-09-26T02:30:10.387Z,79.53
2018-09-26T02:32:38.982Z,77.84
2018-09-26T02:35:07.586Z,78.25
2018-09-26T02:37:36.141Z,78.89
2018-09-26T02:40:04.791Z,75.03
2018-09-26T02:42:33.358Z,75.06
2018-09-26T02:45:01.909Z,75.72
2018-09-26T02:47:30.457Z,74.97
2018-09-26T02:49:58.998Z,73.67
2018-09-26T02:52:27.576Z,73.89
2018-09-26T02:54:56.106Z,73.41
2018-09-26T02:57:24.870Z,73.51
2018-09-26T02:59:53.410Z,70.46
2018-09-26T03:02:22.202Z,69.33
2018-09-26T03:04:50.821Z,68.88
2018-09-26T03:07:19.386Z,69.00
2018-09-26T03:09:47.962Z,69.02
2018-09-26T03:12:16.530Z,67.71
2018-09-26T03:14:45.072Z,68.00
2018-09-26T03:17:13.663Z,67.68
2018-09-26T03:19:42.237Z,66.47
2018-09-26T03:22:10.818Z,66.68
2018-09-26T03:24:39.357Z,65.68
2018-09-26T03:27:07.949Z,66.33
2018-09-26T03:29:36.482Z,65.80
2018-09-26T03:32:05.067Z,65.97
2018-09-26T03:34:33.615Z,64.81
2018-09-26T03:37:02.166Z,65.56
2018-09-26T03:39:30.721Z,70.89
2018-09-26T03:41:59.294Z,72.95
2018-09-26T03:44:27.859Z,75.54
2018-09-26T03:46:56.441Z,75.62
2018-09-26T03:49:24.995Z,76.69
2018-09-26T03:51:53.586Z,75.50
2018-09-26T03:54:22.130Z,76.78
2018-09-26T03:56:50.717Z,77.25
2018-09-26T03:59:19.284Z,78.53
2018-09-26T04:01:47.867Z,79.50
2018-09-26T04:04:16.399Z,79.68
2018-09-26T04:06:44.974Z,78.01
2018-09-26T04:09:13.513Z,72.53
2018-09-26T04:11:42.077Z,74.31
2018-09-26T04:14:10.667Z,73.24
2018-09-26T04:16:42.476Z,74.24
2018-09-26T04:19:18.417Z,74.86
2018-09-26T04:21:50.766Z,76.81
2018-09-26T04:24:23.161Z,77.59
2018-09-26T04:26:54.676Z,77.98
2018-09-26T04:29:24.022Z,78.83
2018-09-26T04:31:52.667Z,78.34
2018-09-26T04:34:21.209Z,78.09
2018-09-26T04:36:53.616Z,77.93
2018-09-26T04:39:26.391Z,77.11
2018-09-26T04:41:55.043Z,76.99
2018-09-26T04:44:23.609Z,77.22
2018-09-26T04:46:52.564Z,77.92
2018-09-26T04:49:23.055Z,77.87
2018-09-26T04:51:51.622Z,78.84
2018-09-26T04:54:20.157Z,78.54
2018-09-26T04:56:48.852Z,78.49
2018-09-26T04:59:17.409Z,78.67
2018-09-26T05:01:45.982Z,79.91
2018-09-26T05:04:14.546Z,80.80
2018-09-26T05:06:43.111Z,81.27
2018-09-26T05:09:11.930Z,80.30
2018-09-26T05:11:40.482Z,79.77
2018-09-26T05:14:09.355Z,80.78
2018-09-26T05:16:37.913Z,82.37
2018-09-26T05:19:07.018Z,83.03
2018-09-26T05:21:35.990Z,83.67
2018-09-26T05:24:04.587Z,82.72
2018-09-26T05:26:33.162Z,82.06
2018-09-26T05:29:01.823Z,82.33
2018-09-26T05:31:30.389Z,81.93
2018-09-26T05:33:58.951Z,82.72
2018-09-26T05:36:27.581Z,82.13
2018-09-26T05:38:56.182Z,82.32
2018-09-26T05:41:24.736Z,81.48
2018-09-26T05:43:53.329Z,81.95
2018-09-26T05:46:22.157Z,81.62
2018-09-26T05:48:50.821Z,81.75
2018-09-26T05:51:19.349Z,80.92
2018-09-26T05:53:47.905Z,81.10
2018-09-26T05:56:16.765Z,80.17
2018-09-26T05:58:45.338Z,80.36
2018-09-26T06:01:13.871Z,78.20
2018-09-26T06:03:42.441Z,79.00
2018-09-26T06:06:11.022Z,78.67
2018-09-26T06:08:39.586Z,78.52
2018-09-26T06:11:08.136Z,77.68
2018-09-26T06:13:36.714Z,77.58
2018-09-26T06:16:05.294Z,76.21
2018-09-26T06:18:34.150Z,77.19
2018-09-26T06:21:02.697Z,76.51
2018-09-26T06:23:31.275Z,75.87
2018-09-26T06:25:59.837Z,75.52
2018-09-26T06:28:28.451Z,75.73
2018-09-26T06:30:57.021Z,75.66
2018-09-26T06:33:25.594Z,74.91
2018-09-26T06:35:54.167Z,74.13
2018-09-26T06:38:22.927Z,73.87
2018-09-26T06:40:51.503Z,73.31
2018-09-26T06:43:20.082Z,71.54
2018-09-26T06:45:48.928Z,70.06
2018-09-26T06:48:17.957Z,66.95
2018-09-26T06:50:46.546Z,65.19
2018-09-26T06:53:15.263Z,67.24
2018-09-26T06:55:43.823Z,68.13
2018-09-26T06:58:12.386Z,66.97
2018-09-26T07:00:41.114Z,66.09
2018-09-26T07:03:09.659Z,67.79
2018-09-26T07:05:38.220Z,66.52
2018-09-26T07:08:07.050Z,66.34
2018-09-26T07:10:35.618Z,64.72
2018-09-26T07:13:04.193Z,64.61
2018-09-26T07:15:32.769Z,62.07
2018-09-26T07:18:01.334Z,62.50
2018-09-26T07:20:30.503Z,61.20
2018-09-26T07:22:59.109Z,59.40
2018-09-26T07:25:27.693Z,54.57
2018-09-26T07:27:56.265Z,52.58
2018-09-26T07:30:25.159Z,53.15
2018-09-26T07:32:54.036Z,53.06
2018-09-26T07:35:22.634Z,53.60
2018-09-26T07:37:51.198Z,50.47
2018-09-26T07:40:19.805Z,47.30
2018-09-26T07:42:48.365Z,50.40
2018-09-26T07:45:17.013Z,50.69
2018-09-26T07:47:45.521Z,49.38
2018-09-26T07:50:14.122Z,41.58
2018-09-26T07:52:42.670Z,39.05
2018-09-26T07:55:11.237Z,37.75
2018-09-26T07:57:39.823Z,41.39
2018-09-26T08:00:08.762Z,39.77
2018-09-26T08:02:37.349Z,38.02
2018-09-26T08:05:05.958Z,38.23
2018-09-26T08:07:34.537Z,35.90
2018-09-26T08:10:03.392Z,34.49
2018-09-26T08:12:31.968Z,32.85
2018-09-26T08:15:00.521Z,29.88
2018-09-26T08:17:29.103Z,31.02
2018-09-26T08:19:57.768Z,28.43
2018-09-26T08:22:26.364Z,26.57
2018-09-26T08:24:55.241Z,25.58
2018-09-26T08:27:23.837Z,26.01
2018-09-26T08:29:52.438Z,24.73
2018-09-26T08:32:20.988Z,25.98
2018-09-26T08:34:49.564Z,28.75
2018-09-26T08:37:18.202Z,27.49
2018-09-26T08:39:46.744Z,27.18
2018-09-26T08:42:15.318Z,28.72
2018-09-26T08:44:43.898Z,26.45
2018-09-26T08:47:12.478Z,25.62
2018-09-26T08:49:41.030Z,27.37
2018-09-26T08:52:09.610Z,30.10
2018-09-26T08:54:38.161Z,29.69
2018-09-26T08:57:06.855Z,28.04
2018-09-26T08:59:35.459Z,28.43
2018-09-26T09:02:04.020Z,25.69
2018-09-26T09:04:32.557Z,24.40
2018-09-26T09:07:01.138Z,22.85
2018-09-26T09:09:29.686Z,22.53
2018-09-26T09:11:58.259Z,20.77
2018-09-26T09:15:51.151Z,19.21
2018-09-26T09:18:19.722Z,22.27
2018-09-26T09:20:48.275Z,23.40
2018-09-26T09:23:16.864Z,22.37
2018-09-26T09:25:45.433Z,23.53
2018-09-26T09:28:14.006Z,24.79
2018-09-26T09:30:42.549Z,26.39
2018-09-26T09:33:11.130Z,24.17
2018-09-26T09:35:39.691Z,23.83
2018-09-26T09:38:08.292Z,23.86
2018-09-26T09:40:36.849Z,27.62
2018-09-26T09:43:05.417Z,26.64
2018-09-26T09:45:33.986Z,26.15
2018-09-26T09:48:02.541Z,25.05
2018-09-26T09:50:31.105Z,27.91
2018-09-26T09:52:59.674Z,27.25
2018-09-26T09:55:28.230Z,29.08
2018-09-26T09:57:57.033Z,28.21
2018-09-26T10:00:30.757Z,29.07
2018-09-26T10:03:00.156Z,30.17
2018-09-26T10:05:28.570Z,28.33
2018-09-26T10:07:57.150Z,26.64
2018-09-26T10:10:26.425Z,25.88
2018-09-26T10:12:54.994Z,26.85
2018-09-26T10:15:23.560Z,25.90
2018-09-26T10:17:52.163Z,23.26
2018-09-26T10:20:20.752Z,23.38
2018-09-26T10:22:49.329Z,24.85
2018-09-26T10:25:17.943Z,23.83
2018-09-26T10:27:46.462Z,20.91
2018-09-26T10:30:15.021Z,20.89
2018-09-26T10:32:44.107Z,21.18
2018-09-26T10:35:12.662Z,21.20
2018-09-26T10:37:42.173Z,24.04
2018-09-26T10:40:11.106Z,24.11
2018-09-26T10:42:39.846Z,26.39
2018-09-26T10:45:08.439Z,26.12
2018-09-26T10:47:37.105Z,27.78
2018-09-26T10:50:06.100Z,26.84
2018-09-26T10:52:34.657Z,26.51
2018-09-26T10:55:03.258Z,26.53
2018-09-26T10:57:31.833Z,22.37
2018-09-26T11:00:00.418Z,21.89
2018-09-26T11:02:29.120Z,21.33
2018-09-26T11:04:57.653Z,19.20
2018-09-26T11:07:26.202Z,20.79
2018-09-26T11:09:54.979Z,19.07
2018-09-26T11:12:23.597Z,19.45
2018-09-26T11:14:52.589Z,16.66
2018-09-26T11:17:21.177Z,15.59
2018-09-26T11:19:49.765Z,17.26
2018-09-26T11:22:18.371Z,18.45
2018-09-26T11:24:46.910Z,17.62
2018-09-26T11:27:15.559Z,16.75
2018-09-26T11:29:44.158Z,18.58
2018-09-26T11:32:12.739Z,18.41
2018-09-26T11:34:41.340Z,17.64
2018-09-26T11:37:09.878Z,18.10
2018-09-26T11:39:38.450Z,18.59
2018-09-26T11:42:07.022Z,18.58
2018-09-26T11:44:35.696Z,16.72
2018-09-26T11:47:04.201Z,18.42
2018-09-26T11:49:33.185Z,18.91
2018-09-26T11:52:01.768Z,18.64
2018-09-26T11:54:30.342Z,17.78
2018-09-26T11:56:58.890Z,16.89
2018-09-26T11:59:27.493Z,17.63
2018-09-26T12:01:56.067Z,17.12
2018-09-26T12:04:24.689Z,18.93
2018-09-26T12:06:53.215Z,20.00
2018-09-26T12:09:21.776Z,18.72
2018-09-26T12:11:50.310Z,23.69
2018-09-26T12:14:18.910Z,22.95
2018-09-26T12:16:47.446Z,23.52
2018-09-26T12:19:16.048Z,23.75
2018-09-26T12:21:44.701Z,22.49
2018-09-26T12:24:13.290Z,19.06
2018-09-26T12:26:41.835Z,18.29
2018-09-26T12:29:10.438Z,20.40
2018-09-26T12:31:38.990Z,21.79
2018-09-26T12:34:07.639Z,21.36
2018-09-26T12:36:36.153Z,21.72
2018-09-26T12:39:06.421Z,19.63
2018-09-26T12:41:34.979Z,20.88
2018-09-26T12:44:03.581Z,21.75
2018-09-26T12:46:32.114Z,20.38
2018-09-26T12:49:00.732Z,20.96
2018-09-26T12:51:29.349Z,22.37
2018-09-26T12:53:58.252Z,21.55
2018-09-26T12:56:26.698Z,19.67
2018-09-26T12:58:55.805Z,18.65
2018-09-26T13:01:24.531Z,21.89
2018-09-26T13:03:53.129Z,22.07
2018-09-26T13:06:21.747Z,20.77
2018-09-26T13:08:50.297Z,21.22
2018-09-26T13:11:18.842Z,22.05
2018-09-26T13:13:47.410Z,20.72
2018-09-26T13:16:16.020Z,20.84
2018-09-26T13:18:44.573Z,21.45
2018-09-26T13:21:13.106Z,22.51
2018-09-26T13:23:42.435Z,23.76
2018-09-26T13:26:11.762Z,25.94
2018-09-26T13:28:40.275Z,25.67
2018-09-26T13:31:08.956Z,25.43
2018-09-26T13:33:37.446Z,24.12
2018-09-26T13:36:06.167Z,23.26
2018-09-26T13:38:34.681Z,23.48
2018-09-26T13:41:03.261Z,22.54
2018-09-26T13:43:31.814Z,22.33
2018-09-26T13:46:00.423Z,22.66
2018-09-26T13:48:28.946Z,21.53
2018-09-26T13:50:57.517Z,22.88
2018-09-26T13:53:26.064Z,20.49
2018-09-26T13:55:54.667Z,19.83
2018-09-26T13:58:23.374Z,21.62
2018-09-26T14:00:52.170Z,19.79
2018-09-26T14:03:20.922Z,19.96
2018-09-26T14:05:49.509Z,19.09
2018-09-26T14:08:18.059Z,18.48
2018-09-26T14:10:46.729Z,19.49
2018-09-26T14:13:15.257Z,18.97
2018-09-26T14:15:43.849Z,20.90
2018-09-26T14:18:12.456Z,19.09
2018-09-26T14:20:57.244Z,20.08
2018-09-26T14:23:25.862Z,20.98
2018-09-26T14:25:54.535Z,20.71
2018-09-26T14:28:23.228Z,20.43
2018-09-26T14:30:52.286Z,20.07
2018-09-26T14:33:20.944Z,21.40
2018-09-26T14:35:49.562Z,20.70
2018-09-26T14:38:18.332Z,20.92
2018-09-26T14:40:46.950Z,20.67
2018-09-26T14:43:15.583Z,21.98
2018-09-26T14:45:44.387Z,21.52
2018-09-26T14:48:12.930Z,20.36
2018-09-26T14:50:41.573Z,19.84
2018-09-26T14:53:10.231Z,20.72
2018-09-26T14:55:38.889Z,20.08
2018-09-26T14:58:07.835Z,19.62
2018-09-26T15:00:36.578Z,19.78
2018-09-26T15:03:05.207Z,21.13
2018-09-26T15:05:33.865Z,19.51
2018-09-26T15:08:02.484Z,19.67
2018-09-26T15:10:31.550Z,19.20
2018-09-26T15:13:00.183Z,19.94
2018-09-26T15:15:29.162Z,20.43
2018-09-26T15:18:00.045Z,19.45
2018-09-26T15:20:28.765Z,18.75
2018-09-26T15:22:57.397Z,20.91
2018-09-26T15:25:28.163Z,20.10
2018-09-26T15:27:56.946Z,19.42
2018-09-26T15:30:25.969Z,20.54
2018-09-26T15:32:54.566Z,21.62
2018-09-26T15:35:23.335Z,22.10
2018-09-26T15:37:53.590Z,21.60
2018-09-26T15:40:22.707Z,20.83
2018-09-26T15:42:51.487Z,23.48
2018-09-26T15:45:20.145Z,23.59
2018-09-26T15:47:51.322Z,22.82
2018-09-26T15:50:21.170Z,22.75
2018-09-26T15:52:49.802Z,22.82
2018-09-26T15:55:18.432Z,24.36
2018-09-26T15:57:47.131Z,26.14
2018-09-26T16:00:15.780Z,25.86
2018-09-26T16:02:44.515Z,27.78
2018-09-26T16:05:13.166Z,28.02
2018-09-26T16:07:41.723Z,27.28
2018-09-26T16:10:10.309Z,28.68
2018-09-26T16:12:38.872Z,30.60
2018-09-26T16:15:07.463Z,31.74
2018-09-26T16:17:36.003Z,33.76
2018-09-26T16:20:04.719Z,34.55
2018-09-26T16:22:33.275Z,34.39
2018-09-26T16:25:02.173Z,37.70
2018-09-26T16:27:30.878Z,35.87
2018-09-26T16:29:59.689Z,34.63
2018-09-26T16:32:28.252Z,37.04
2018-09-26T16:34:56.836Z,37.31
2018-09-26T16:37:25.731Z,38.54
2018-09-26T16:39:54.291Z,39.48
2018-09-26T16:42:22.930Z,42.13
2018-09-26T16:44:51.527Z,45.00
2018-09-26T16:47:20.398Z,46.36
2018-09-26T16:49:48.986Z,48.25
2018-09-26T16:52:18.397Z,47.74
2018-09-26T16:54:47.369Z,48.17
2018-09-26T16:57:15.958Z,48.51
2018-09-26T16:59:44.518Z,47.88
2018-09-26T17:02:13.849Z,52.29
2018-09-26T17:04:42.457Z,51.79
2018-09-26T17:07:11.070Z,54.80
2018-09-26T17:09:39.633Z,57.33
2018-09-26T17:12:08.263Z,57.88
2018-09-26T17:14:36.818Z,59.06
2018-09-26T17:17:05.563Z,59.78
2018-09-26T17:19:34.222Z,59.13
2018-09-26T17:22:02.812Z,58.39
2018-09-26T17:24:31.374Z,60.44
2018-09-26T17:26:59.938Z,60.65
2018-09-26T17:29:28.607Z,64.03
2018-09-26T17:31:57.462Z,62.07
2018-09-26T17:34:26.079Z,61.56
2018-09-26T17:36:54.728Z,61.32
2018-09-26T17:39:23.286Z,61.98
2018-09-26T17:41:51.911Z,63.26
2018-09-26T17:44:20.490Z,64.63
2018-09-26T17:46:49.074Z,64.57
2018-09-26T17:49:17.670Z,65.97
2018-09-26T17:51:46.223Z,65.61
2018-09-26T17:54:14.819Z,66.56
2018-09-26T17:56:43.377Z,66.06
2018-09-26T17:59:11.944Z,66.16
2018-09-26T18:01:40.534Z,67.06
2018-09-26T18:04:09.136Z,67.28
2018-09-26T18:06:37.718Z,66.99
2018-09-26T18:09:08.972Z,67.94
2018-09-26T18:11:37.559Z,68.12
2018-09-26T18:14:06.222Z,67.64
2018-09-26T18:16:34.810Z,68.21
2018-09-26T18:19:03.381Z,68.35
2018-09-26T18:21:32.010Z,67.78
2018-09-26T18:24:01.446Z,67.94
2018-09-26T18:26:30.037Z,68.69
2018-09-26T18:28:58.586Z,68.73
2018-09-26T18:31:27.686Z,68.44
2018-09-26T18:33:56.217Z,68.07
2018-09-26T18:36:24.827Z,69.10
2018-09-26T18:38:53.474Z,70.35
2018-09-26T18:41:22.027Z,69.46
2018-09-26T18:43:50.580Z,69.27
2018-09-26T18:46:19.139Z,68.30
2018-09-26T18:48:47.722Z,68.88
2018-09-26T18:51:16.296Z,69.09
2018-09-26T18:53:44.858Z,69.60
2018-09-26T18:56:13.394Z,69.52
2018-09-26T18:58:42.038Z,69.23
2018-09-26T19:01:10.598Z,69.80
2018-09-26T19:03:39.149Z,70.67
2018-09-26T19:06:07.736Z,69.60
2018-09-26T19:08:36.314Z,69.54
2018-09-26T19:11:05.066Z,70.13
2018-09-26T19:13:33.682Z,70.52
2018-09-26T19:16:02.213Z,69.78
2018-09-26T19:18:30.782Z,70.60
2018-09-26T19:20:59.360Z,71.33
2018-09-26T19:23:27.930Z,71.31
2018-09-26T19:25:56.511Z,71.44
2018-09-26T19:28:25.065Z,72.04
2018-09-26T19:30:53.634Z,72.14
2018-09-26T19:33:22.227Z,71.84
2018-09-26T19:35:50.872Z,71.96
2018-09-26T19:38:19.450Z,71.68
2018-09-26T19:40:47.991Z,71.39
2018-09-26T19:43:19.632Z,72.95
2018-09-26T19:45:48.267Z,72.63
2018-09-26T19:48:17.279Z,72.64
2018-09-26T19:50:45.831Z,72.54
2018-09-26T19:53:14.418Z,73.18
2018-09-26T19:55:42.987Z,72.96
2018-09-26T19:58:12.474Z,73.21
2018-09-26T20:00:41.034Z,74.19
2018-09-26T20:03:09.633Z,73.31
2018-09-26T20:05:38.206Z,73.39
2018-09-26T20:08:07.127Z,73.27
2018-09-26T20:10:35.677Z,73.31
2018-09-26T20:13:04.270Z,73.07
2018-09-26T20:15:32.818Z,73.53
2018-09-26T20:18:01.497Z,73.84
2018-09-26T20:20:30.065Z,74.23
2018-09-26T20:22:58.663Z,73.47
2018-09-26T20:25:27.212Z,73.59
2018-09-26T20:27:55.810Z,73.95
2018-09-26T20:30:24.350Z,73.81
2018-09-26T20:32:52.974Z,74.08
2018-09-26T20:35:21.541Z,73.38
2018-09-26T20:37:50.086Z,74.17
2018-09-26T20:40:18.627Z,73.32
2018-09-26T20:42:47.201Z,74.02
2018-09-26T20:45:15.816Z,74.18
2018-09-26T20:47:44.341Z,73.65
2018-09-26T20:50:12.874Z,73.06
2018-09-26T20:52:41.442Z,74.31
2018-09-26T20:55:10.007Z,74.30
2018-09-26T20:57:38.857Z,74.73
2018-09-26T21:00:07.471Z,75.08
2018-09-26T21:02:36.065Z,75.45
2018-09-26T21:05:04.861Z,75.40
2018-09-26T21:07:33.410Z,74.91
2018-09-26T21:10:02.007Z,75.17
2018-09-26T21:12:30.557Z,74.97
2018-09-26T21:15:01.006Z,74.63
2018-09-26T21:17:29.598Z,74.55
2018-09-26T21:19:58.145Z,74.44
2018-09-26T21:22:26.696Z,74.51
2018-09-26T21:24:55.255Z,75.52
2018-09-26T21:27:24.614Z,76.51
2018-09-26T21:29:53.194Z,76.70
2018-09-26T21:32:21.748Z,76.48
2018-09-26T21:34:50.314Z,76.14
2018-09-26T21:37:18.862Z,76.11
2018-09-26T21:39:47.515Z,75.79
2018-09-26T21:42:16.068Z,76.81
2018-09-26T21:44:44.662Z,76.95
2018-09-26T21:47:13.590Z,76.20
2018-09-26T21:49:42.167Z,76.58
2018-09-26T21:52:10.729Z,76.73
2018-09-26T21:54:39.299Z,77.39
2018-09-26T21:57:08.106Z,77.84
2018-09-26T21:59:36.665Z,77.82
2018-09-26T22:02:05.226Z,77.54
2018-09-26T22:04:33.779Z,78.05
2018-09-26T22:07:02.334Z,78.00
2018-09-26T22:09:30.897Z,78.41
2018-09-26T22:12:00.447Z,78.85
2018-09-26T22:14:28.997Z,78.34
2018-09-26T22:16:57.546Z,78.06
2018-09-26T22:19:26.170Z,78.79
2018-09-26T22:21:54.721Z,79.07
2018-09-26T22:24:23.310Z,79.15
2018-09-26T22:26:51.849Z,79.42
2018-09-26T22:29:20.418Z,79.35
2018-09-26T22:31:48.957Z,78.82
2018-09-26T22:34:17.546Z,78.72
2018-09-26T22:36:46.093Z,78.92
2018-09-26T22:39:14.687Z,79.06
2018-09-26T22:41:43.229Z,79.77
2018-09-26T22:44:11.794Z,79.20
2018-09-26T22:46:40.331Z,79.76
2018-09-26T22:49:08.897Z,80.76
2018-09-26T22:51:37.463Z,80.28
2018-09-26T22:54:06.037Z,80.26
2018-09-26T22:56:34.671Z,80.33
2018-09-26T22:59:03.271Z,80.17
2018-09-26T23:01:31.992Z,80.11
2018-09-26T23:04:00.562Z,80.48
2018-09-26T23:06:29.131Z,81.15
2018-09-26T23:08:57.697Z,80.79
2018-09-26T23:11:26.249Z,80.01
2018-09-26T23:13:54.830Z,80.74
2018-09-26T23:16:23.369Z,81.31
2018-09-26T23:18:51.974Z,81.22
2018-09-26T23:21:21.207Z,80.29
2018-09-26T23:23:49.791Z,81.60
2018-09-26T23:26:18.330Z,81.89
2018-09-26T23:28:46.882Z,81.16
2018-09-26T23:31:15.435Z,81.07
2018-09-26T23:33:43.998Z,81.37
2018-09-26T23:36:12.526Z,81.42
2018-09-26T23:38:41.095Z,81.38
2018-09-26T23:41:09.694Z,81.15
2018-09-26T23:43:38.229Z,81.27
2018-09-26T23:46:06.906Z,80.77
2018-09-26T23:48:35.882Z,81.92
2018-09-26T23:51:04.449Z,81.77
2018-09-26T23:53:33.034Z,81.14
2018-09-26T23:56:01.606Z,80.82
2018-09-26T23:58:30.146Z,81.13
